Norwegian Sun — C6RN3 — position and weather

sailwx.info

Track history (hours):
 
Tides and Currents Weather Stations Pressure Air Temp Water Temp Dewpoint Dewpoint Depression Visibility Wind Speed Wind Dir Waves Ship Positions

Norwegian Sun

Operator: Norwegian Cruise Line

Last reported at 2015-Jul-30 08:33 UTC. Time now 2015-Jul-31 23:27 UTC.
Position N 58°18' W 134°60'.

Type: Ship. MMSI: 311109000.

Date/timePositionNaut miles runAvg speedWind from/ knotsBaromVisibWave heightAir tempDewpointWater temp
2015-Jul-30 08:33N 58°18' W 134°60'8 7.4
2015-Jul-30 07:32N 58°11' W 134°56'6 1.4
2015-Jul-30 03:19N 58°05' W 135°00'6 8.3
2015-Jul-30 02:34N 58°08' W 135°11'8 7.9
2015-Jul-30 01:33N 58°09' W 135°26'1 1.0
2015-Jul-30 00:33N 58°08' W 135°27'0 0.1
2015-Jul-29 23:33N 58°08' W 135°27'0 0.0
2015-Jul-29 22:33N 58°08' W 135°27'0 0.0
2015-Jul-29 21:33N 58°08' W 135°27'0 0.0
2015-Jul-29 20:33N 58°08' W 135°27'0 0.0
2015-Jul-29 19:33N 58°08' W 135°27'0 0.0
2015-Jul-29 18:33N 58°08' W 135°27'0 0.0
2015-Jul-29 17:33N 58°09' W 135°27'0 0.0
2015-Jul-29 16:33N 58°08' W 135°27'4 3.9
2015-Jul-29 15:33N 58°12' W 135°27'1312.6
2015-Jul-29 14:33N 58°18' W 135°48'35512.4
2015-Jul-28 10:00N 59°36' W 147°00'146 4.2 360 / 31010.010.8 1.013.011.215.0
2015-Jul-26 23:00N 59°30' W 142°12'91 7.0 140 / 151009.0 1.014.012.315.0
2015-Jul-26 10:00N 59°00' W 139°24'17 8.6 120 / 111014.0 5.4 1.013.011.212.0
2015-Jul-26 08:00N 58°48' W 139°00'9611.4 120 / 61015.0 5.4 1.014.010.512.0
2015-Jul-25 23:33N 58°20' W 136°04'1010.2
2015-Jul-25 22:34N 58°30' W 136°03'1413.5
2015-Jul-25 21:34N 58°43' W 136°09'10 1.7
2015-Jul-25 15:33N 58°48' W 136°26'1919.1
2015-Jul-25 14:33N 58°34' W 136°03'1111.3
2015-Jul-25 13:34N 58°23' W 135°57'1211.6
2015-Jul-25 12:33N 58°17' W 135°38'50 1.1
2015-Jul-23 15:27N 58°06' W 134°05'2013.8
2015-Jul-23 14:00N 57°48' W 133°48'3015.1 210 / 121008.0 12.010.211.0
2015-Jul-23 12:00N 57°18' W 133°54'4019.8 120 / 61009.010.8 1.012.010.211.0
2015-Jul-23 10:00N 56°42' W 134°24'183 7.3 120 / 121010.010.8 1.012.010.211.0
2015-Jul-22 09:00N 54°18' W 131°06'1312.5 270 / 231014.010.8 0.513.011.212.0
2015-Jul-22 08:00N 54°06' W 131°00'11414.2 050 / 141014.010.8 0.513.011.212.0
2015-Jul-22 00:00N 52°18' W 130°00'10716.6 220 / 81016.027.0 0.518.014.815.0
2015-Jul-21 17:33N 51°02' W 127°58'1615.8
2015-Jul-21 16:33N 50°53' W 127°38'8117.8
2015-Jul-21 12:00N 50°18' W 125°42'13 9.2 270 / 181017.0 15.0 9.611.0
2015-Jul-21 10:32N 50°13' W 125°22'1413.7
2015-Jul-21 09:33N 50°01' W 125°13'9 9.5
2015-Jul-21 08:33N 49°54' W 125°03'1010.1
2015-Jul-21 07:33N 49°47' W 124°51'10 9.5
2015-Jul-21 06:33N 49°42' W 124°40'9 9.4
2015-Jul-21 05:33N 49°36' W 124°28'10 9.7
2015-Jul-21 04:33N 49°32' W 124°15'8 8.0
2015-Jul-21 03:33N 49°28' W 124°04'8 8.3
2015-Jul-21 02:33N 49°25' W 123°52'9 9.0
2015-Jul-21 01:34N 49°22' W 123°39'1111.0
2015-Jul-21 00:34N 49°19' W 123°22'1010.4
2015-Jul-20 23:33N 49°17' W 123°07'0 0.0
2015-Jul-20 22:30N 49°17' W 123°07'0 0.0
2015-Jul-20 21:31N 49°17' W 123°07'0 0.0
2015-Jul-20 20:32N 49°17' W 123°07'0 0.0
2015-Jul-20 19:34N 49°17' W 123°07'0 0.0
2015-Jul-20 18:32N 49°17' W 123°07'0 0.0
2015-Jul-20 17:31N 49°17' W 123°07'0 0.0
2015-Jul-20 16:33N 49°17' W 123°07'0 0.0
2015-Jul-20 15:32N 49°17' W 123°07'0 0.0
2015-Jul-20 14:33N 49°17' W 123°07'2 2.1
2015-Jul-20 13:33N 49°19' W 123°09'9 8.9
2015-Jul-20 12:33N 49°19' W 123°22'10 9.9
2015-Jul-20 11:33N 49°20' W 123°37'1010.3
2015-Jul-20 10:33N 49°22' W 123°53'1010.2
2015-Jul-20 09:33N 49°24' W 124°08'2 4.2
2015-Jul-20 09:00N 49°24' W 124°12'818.6 300 / 171014.0 19.012.318.0
2015-Jul-20 08:33N 49°27' W 124°24'  
Track history (hours):
 
Tides and Currents Weather Stations Pressure Air Temp Water Temp Dewpoint Dewpoint Depression Visibility Wind Speed Wind Dir Waves Ship Positions

Norwegian Sun

Operator: Norwegian Cruise Line

Last reported at 2015-Jul-30 08:33 UTC. Time now 2015-Jul-31 23:27 UTC.
Position N 58°18' W 134°60'.

Type: Ship. MMSI: 311109000.

Date/timePositionNaut miles runAvg speedWind from/ knotsBaromVisibWave heightAir tempDewpointWater temp
2015-Jul-30 08:33N 58°18' W 134°60'8 7.4
2015-Jul-30 07:32N 58°11' W 134°56'6 1.4
2015-Jul-30 03:19N 58°05' W 135°00'6 8.3
2015-Jul-30 02:34N 58°08' W 135°11'8 7.9
2015-Jul-30 01:33N 58°09' W 135°26'1 1.0
2015-Jul-30 00:33N 58°08' W 135°27'0 0.1
2015-Jul-29 23:33N 58°08' W 135°27'0 0.0
2015-Jul-29 22:33N 58°08' W 135°27'0 0.0
2015-Jul-29 21:33N 58°08' W 135°27'0 0.0
2015-Jul-29 20:33N 58°08' W 135°27'0 0.0
2015-Jul-29 19:33N 58°08' W 135°27'0 0.0
2015-Jul-29 18:33N 58°08' W 135°27'0 0.0
2015-Jul-29 17:33N 58°09' W 135°27'0 0.0
2015-Jul-29 16:33N 58°08' W 135°27'4 3.9
2015-Jul-29 15:33N 58°12' W 135°27'1312.6
2015-Jul-29 14:33N 58°18' W 135°48'35512.4
2015-Jul-28 10:00N 59°36' W 147°00'146 4.2 360 / 31010.010.8 1.013.011.215.0
2015-Jul-26 23:00N 59°30' W 142°12'91 7.0 140 / 151009.0 1.014.012.315.0
2015-Jul-26 10:00N 59°00' W 139°24'17 8.6 120 / 111014.0 5.4 1.013.011.212.0
2015-Jul-26 08:00N 58°48' W 139°00'9611.4 120 / 61015.0 5.4 1.014.010.512.0
2015-Jul-25 23:33N 58°20' W 136°04'1010.2
2015-Jul-25 22:34N 58°30' W 136°03'1413.5
2015-Jul-25 21:34N 58°43' W 136°09'10 1.7
2015-Jul-25 15:33N 58°48' W 136°26'1919.1
2015-Jul-25 14:33N 58°34' W 136°03'1111.3
2015-Jul-25 13:34N 58°23' W 135°57'1211.6
2015-Jul-25 12:33N 58°17' W 135°38'50 1.1
2015-Jul-23 15:27N 58°06' W 134°05'2013.8
2015-Jul-23 14:00N 57°48' W 133°48'3015.1 210 / 121008.0 12.010.211.0
2015-Jul-23 12:00N 57°18' W 133°54'4019.8 120 / 61009.010.8 1.012.010.211.0
2015-Jul-23 10:00N 56°42' W 134°24'183 7.3 120 / 121010.010.8 1.012.010.211.0
2015-Jul-22 09:00N 54°18' W 131°06'1312.5 270 / 231014.010.8 0.513.011.212.0
2015-Jul-22 08:00N 54°06' W 131°00'11414.2 050 / 141014.010.8 0.513.011.212.0
2015-Jul-22 00:00N 52°18' W 130°00'10716.6 220 / 81016.027.0 0.518.014.815.0
2015-Jul-21 17:33N 51°02' W 127°58'1615.8
2015-Jul-21 16:33N 50°53' W 127°38'8117.8
2015-Jul-21 12:00N 50°18' W 125°42'13 9.2 270 / 181017.0 15.0 9.611.0
2015-Jul-21 10:32N 50°13' W 125°22'1413.7
2015-Jul-21 09:33N 50°01' W 125°13'9 9.5
2015-Jul-21 08:33N 49°54' W 125°03'1010.1
2015-Jul-21 07:33N 49°47' W 124°51'10 9.5
2015-Jul-21 06:33N 49°42' W 124°40'9 9.4
2015-Jul-21 05:33N 49°36' W 124°28'10 9.7
2015-Jul-21 04:33N 49°32' W 124°15'8 8.0
2015-Jul-21 03:33N 49°28' W 124°04'8 8.3
2015-Jul-21 02:33N 49°25' W 123°52'9 9.0
2015-Jul-21 01:34N 49°22' W 123°39'1111.0
2015-Jul-21 00:34N 49°19' W 123°22'1010.4
2015-Jul-20 23:33N 49°17' W 123°07'0 0.0
2015-Jul-20 22:30N 49°17' W 123°07'0 0.0
2015-Jul-20 21:31N 49°17' W 123°07'0 0.0
2015-Jul-20 20:32N 49°17' W 123°07'0 0.0
2015-Jul-20 19:34N 49°17' W 123°07'0 0.0
2015-Jul-20 18:32N 49°17' W 123°07'0 0.0
2015-Jul-20 17:31N 49°17' W 123°07'0 0.0
2015-Jul-20 16:33N 49°17' W 123°07'0 0.0
2015-Jul-20 15:32N 49°17' W 123°07'0 0.0
2015-Jul-20 14:33N 49°17' W 123°07'2 2.1
2015-Jul-20 13:33N 49°19' W 123°09'9 8.9
2015-Jul-20 12:33N 49°19' W 123°22'10 9.9
2015-Jul-20 11:33N 49°20' W 123°37'1010.3
2015-Jul-20 10:33N 49°22' W 123°53'1010.2
2015-Jul-20 09:33N 49°24' W 124°08'2 4.2
2015-Jul-20 09:00N 49°24' W 124°12'818.6 300 / 171014.0 19.012.318.0
2015-Jul-20 08:33N 49°27' W 124°24'  

Dump ship's entire track history